Time;durP1;ratioP1;P1;durP2;ratioP2;P2;SDS_P1;SDS_P2;PMS_P1;PMS_P2;Temp;Humidity;BMP_temperature;BMP_pressure;BME280_temperature;BME280_humidity;BME280_pressure;Samples;Min_cycle;Max_cycle;Signal;HPM_P1;HPM_P2
2022/03/14 00:01:18;;;;;;;8.43;3.90;;;5.70;65.50;;;;;;5091706;28;20032;-50
2022/03/14 00:03:50;;;;;;;5.88;3.33;;;5.70;65.80;;;;;;5092230;28;20071;-54
2022/03/14 00:06:18;;;;;;;7.35;3.78;;;5.60;66.80;;;;;;5084816;28;20496;-50
2022/03/14 00:08:45;;;;;;;7.18;3.88;;;5.60;66.90;;;;;;5083949;28;20044;-51
2022/03/14 00:11:15;;;;;;;7.35;3.90;;;5.60;67.10;;;;;;5092370;28;20503;-54
2022/03/14 00:13:50;;;;;;;9.02;4.22;;;5.50;65.70;;;;;;5086271;28;20068;-54
2022/03/14 00:16:24;;;;;;;9.23;4.30;;;5.60;66.20;;;;;;5080184;28;20033;-55
2022/03/14 00:18:53;;;;;;;9.13;4.00;;;5.60;65.70;;;;;;5071720;28;20463;-53
2022/03/14 00:21:23;;;;;;;8.35;4.13;;;5.80;63.30;;;;;;5087335;28;20059;-52
2022/03/14 00:23:51;;;;;;;7.40;3.58;;;6.00;64.00;;;;;;5088058;28;20056;-54
2022/03/14 00:26:19;;;;;;;9.52;4.15;;;6.10;63.90;;;;;;5091644;28;20097;-54
2022/03/14 00:28:46;;;;;;;8.43;3.47;;;6.20;63.10;;;;;;5091274;28;20048;-52
2022/03/14 00:31:14;;;;;;;8.80;4.25;;;6.10;63.80;;;;;;5082929;28;20078;-51
2022/03/14 00:33:42;;;;;;;7.35;3.88;;;6.00;64.10;;;;;;5075608;28;20127;-50
2022/03/14 00:36:09;;;;;;;5.85;3.63;;;6.10;64.20;;;;;;5072069;28;20445;-54
2022/03/14 00:38:36;;;;;;;8.82;4.20;;;6.10;65.20;;;;;;5064291;28;20450;-54
2022/03/14 00:41:05;;;;;;;8.30;4.10;;;6.00;65.60;;;;;;5082893;28;20072;-51
2022/03/14 00:43:33;;;;;;;7.65;4.05;;;5.90;66.20;;;;;;5092006;28;20048;-52
2022/03/14 00:46:00;;;;;;;7.07;3.75;;;6.00;63.30;;;;;;5088017;28;20154;-52
2022/03/14 00:48:28;;;;;;;8.30;4.35;;;6.20;63.50;;;;;;5085394;28;20036;-54
2022/03/14 00:50:58;;;;;;;11.13;4.35;;;6.30;62.80;;;;;;5091648;28;20052;-52
2022/03/14 00:53:25;;;;;;;9.90;4.22;;;6.30;63.20;;;;;;5087575;28;20044;-54
2022/03/14 00:55:52;;;;;;;8.57;4.07;;;6.50;61.60;;;;;;5080587;28;20106;-54
2022/03/14 00:58:19;;;;;;;6.43;2.88;;;6.60;60.80;;;;;;5091711;28;20286;-51
2022/03/14 01:00:48;;;;;;;9.18;4.05;;;6.60;61.60;;;;;;5091454;28;20470;-54
2022/03/14 01:03:16;;;;;;;13.20;4.63;;;6.50;61.60;;;;;;5079885;28;20068;-56
2022/03/14 01:05:43;;;;;;;7.82;3.72;;;6.60;60.60;;;;;;5087668;28;20036;-53
2022/03/14 01:08:10;;;;;;;8.30;4.55;;;6.60;63.00;;;;;;5091490;28;20101;-54
2022/03/14 01:10:37;;;;;;;7.53;4.38;;;6.50;61.40;;;;;;5087660;28;20045;-51
2022/03/14 01:13:04;;;;;;;10.77;4.10;;;6.60;61.20;;;;;;5082439;28;20040;-54
2022/03/14 01:15:32;;;;;;;8.63;4.22;;;6.60;61.90;;;;;;5091359;28;20067;-56
2022/03/14 01:18:00;;;;;;;11.20;4.18;;;6.60;61.70;;;;;;5091429;28;20607;-51
2022/03/14 01:20:27;;;;;;;8.05;4.28;;;6.50;62.60;;;;;;5081490;28;20039;-52
2022/03/14 01:22:54;;;;;;;7.88;4.18;;;6.50;62.00;;;;;;5089391;28;20089;-53
2022/03/14 01:25:23;;;;;;;9.35;4.60;;;6.40;63.40;;;;;;5091226;28;20110;-53
2022/03/14 01:27:52;;;;;;;9.57;4.07;;;6.50;61.90;;;;;;5083918;28;20048;-53
2022/03/14 01:30:20;;;;;;;7.57;4.15;;;6.50;61.90;;;;;;5082722;28;20044;-54
2022/03/14 01:32:47;;;;;;;7.65;3.50;;;6.40;64.20;;;;;;5091493;28;20052;-51
2022/03/14 01:35:17;;;;;;;13.98;4.40;;;6.30;65.00;;;;;;5090323;28;20119;-54
2022/03/14 01:37:49;;;;;;;8.13;4.18;;;6.20;63.90;;;;;;5079316;28;20052;-53
2022/03/14 01:40:19;;;;;;;8.77;4.22;;;6.10;64.70;;;;;;5091022;28;20028;-54
2022/03/14 01:42:46;;;;;;;11.63;3.92;;;6.00;65.50;;;;;;5091477;28;20101;-51
2022/03/14 01:45:15;;;;;;;7.40;3.80;;;5.90;66.70;;;;;;5080186;28;20112;-53
2022/03/14 01:47:42;;;;;;;9.57;4.47;;;5.80;65.80;;;;;;5068944;28;20451;-50
2022/03/14 01:50:10;;;;;;;;;;;5.80;66.40;;;;;;5091322;28;20052;-54
2022/03/14 01:52:37;;;;;;;6.88;3.78;;;5.80;65.20;;;;;;5085874;28;19959;-50
2022/03/14 01:55:05;;;;;;;8.50;4.28;;;5.90;64.60;;;;;;5085859;28;20040;-52
2022/03/14 01:57:33;;;;;;;9.07;4.18;;;6.10;63.60;;;;;;5078735;28;20068;-54
2022/03/14 02:00:00;;;;;;;9.73;3.90;;;6.20;64.10;;;;;;5071885;28;20101;-51
2022/03/14 02:02:27;;;;;;;8.43;3.60;;;6.10;66.00;;;;;;5080965;28;20093;-51
2022/03/14 02:04:54;;;;;;;8.40;3.60;;;5.90;67.40;;;;;;5086396;28;20048;-52
2022/03/14 02:07:21;;;;;;;7.35;3.53;;;5.80;68.00;;;;;;5094729;28;20040;-54
2022/03/14 02:09:48;;;;;;;7.15;3.55;;;5.60;69.20;;;;;;5093869;28;20044;-52
2022/03/14 02:12:15;;;;;;;11.60;3.92;;;5.50;69.40;;;;;;5082791;28;20115;-52
2022/03/14 02:14:42;;;;;;;9.77;3.80;;;5.40;69.30;;;;;;5090788;28;20052;-54
2022/03/14 02:17:15;;;;;;;6.95;3.60;;;5.30;70.50;;;;;;5094729;28;20086;-54
2022/03/14 02:19:43;;;;;;;8.95;3.85;;;5.10;70.50;;;;;;5092258;28;20040;-50
2022/03/14 02:22:13;;;;;;;7.45;3.10;;;5.10;70.20;;;;;;5082536;28;20060;-50
2022/03/14 02:24:45;;;;;;;7.97;3.90;;;5.20;70.40;;;;;;5074348;28;20044;-51
2022/03/14 02:27:14;;;;;;;5.50;2.72;;;5.10;70.70;;;;;;5074220;28;20081;-53
2022/03/14 02:29:42;;;;;;;7.60;3.05;;;5.10;71.80;;;;;;5073739;28;20058;-53
2022/03/14 02:32:12;;;;;;;8.10;3.45;;;5.00;72.20;;;;;;5085871;28;20067;-55
2022/03/14 02:34:41;;;;;;;7.18;3.08;;;4.90;72.70;;;;;;5094351;28;20393;-52
2022/03/14 02:37:08;;;;;;;7.60;3.28;;;4.80;74.20;;;;;;5094089;28;20047;-54
2022/03/14 02:39:37;;;;;;;7.15;2.97;;;4.80;73.90;;;;;;5089637;28;20056;-55
2022/03/14 02:42:06;;;;;;;5.45;3.05;;;4.80;74.30;;;;;;5085051;28;20503;-50
2022/03/14 02:44:34;;;;;;;5.97;3.40;;;4.80;74.50;;;;;;5094009;28;20032;-53
2022/03/14 02:47:04;;;;;;;6.75;3.33;;;4.90;73.50;;;;;;5094052;28;20051;-52
2022/03/14 02:49:32;;;;;;;9.40;3.45;;;4.90;74.40;;;;;;5085129;28;20118;-53
2022/03/14 02:51:59;;;;;;;;;;;4.80;75.40;;;;;;5085995;28;20584;-52
2022/03/14 02:54:26;;;;;;;6.22;3.42;;;4.70;75.40;;;;;;5093967;28;19920;-53
2022/03/14 02:56:54;;;;;;;8.05;3.08;;;4.70;75.40;;;;;;5093748;28;20500;-54
2022/03/14 02:59:20;;;;;;;7.30;3.45;;;4.70;75.10;;;;;;5085915;28;20055;-52
2022/03/14 03:01:47;;;;;;;7.57;2.90;;;4.80;74.40;;;;;;5085367;28;20123;-54
2022/03/14 03:04:15;;;;;;;6.80;3.65;;;4.90;74.50;;;;;;5093851;28;20040;-53
2022/03/14 03:06:42;;;;;;;6.22;3.53;;;4.90;75.10;;;;;;5093797;28;20044;-54
2022/03/14 03:09:09;;;;;;;;;;;4.90;75.40;;;;;;5085599;28;20040;-53
2022/03/14 03:11:36;;;;;;;7.75;3.50;;;4.80;75.90;;;;;;5088450;28;19920;-54
2022/03/14 03:14:04;;;;;;;8.27;4.20;;;4.80;75.80;;;;;;5093696;28;20055;-53
2022/03/14 03:16:34;;;;;;;10.60;4.78;;;4.80;74.70;;;;;;5090948;28;20123;-52
2022/03/14 03:19:03;;;;;;;9.40;4.82;;;4.90;74.30;;;;;;5084683;28;20044;-54
2022/03/14 03:21:34;;;;;;;11.38;4.85;;;4.90;74.50;;;;;;5093407;28;20716;-51
2022/03/14 03:24:01;;;;;;;8.55;4.53;;;4.80;75.30;;;;;;5087484;28;20041;-53
2022/03/14 03:26:28;;;;;;;;;;;4.80;75.60;;;;;;5085159;28;20035;-52
2022/03/14 03:28:55;;;;;;;8.63;4.10;;;4.70;76.10;;;;;;5092917;28;19927;-51
2022/03/14 03:31:22;;;;;;;10.43;5.05;;;4.80;75.00;;;;;;5093419;28;20447;-53
2022/03/14 03:33:50;;;;;;;8.85;4.38;;;4.80;74.70;;;;;;5086169;28;20124;-50
2022/03/14 03:36:17;;;;;;;8.52;4.05;;;4.90;74.80;;;;;;5084700;28;20048;-53
2022/03/14 03:38:44;;;;;;;;;;;4.90;74.40;;;;;;5093681;28;20444;-53
2022/03/14 03:41:12;;;;;;;13.20;4.15;;;4.90;76.40;;;;;;5093050;28;19966;-56
2022/03/14 03:43:39;;;;;;;8.63;4.38;;;4.90;76.20;;;;;;5086149;28;20515;-54
2022/03/14 03:46:06;;;;;;;6.95;4.15;;;4.90;77.30;;;;;;5084152;28;20044;-56
2022/03/14 03:48:33;;;;;;;;;;;4.90;76.80;;;;;;5084077;28;20060;-53
2022/03/14 03:51:01;;;;;;;9.02;4.22;;;4.90;77.00;;;;;;5091280;28;20014;-51
2022/03/14 03:53:28;;;;;;;10.70;4.35;;;4.80;77.50;;;;;;5092843;28;20051;-50
2022/03/14 03:55:54;;;;;;;8.85;4.35;;;4.80;77.60;;;;;;5087967;28;20824;-55
2022/03/14 03:58:22;;;;;;;7.95;4.28;;;4.80;78.20;;;;;;5085947;28;20492;-51
2022/03/14 04:00:51;;;;;;;7.65;3.78;;;4.70;78.40;;;;;;5092407;28;20040;-54
2022/03/14 04:03:21;;;;;;;7.30;3.70;;;4.60;79.20;;;;;;5085337;28;20135;-55
2022/03/14 04:05:49;;;;;;;7.75;3.65;;;4.50;79.40;;;;;;5084102;28;20070;-56
2022/03/14 04:08:16;;;;;;;9.70;4.05;;;4.50;79.90;;;;;;5092579;28;20043;-54
2022/03/14 04:10:43;;;;;;;7.60;3.92;;;4.50;78.60;;;;;;5090926;28;20101;-52
2022/03/14 04:13:14;;;;;;;7.53;4.07;;;4.60;78.60;;;;;;5075611;28;20047;-54
2022/03/14 04:15:51;;;;;;;10.90;4.13;;;4.60;79.80;;;;;;5092208;28;20441;-53
2022/03/14 04:18:25;;;;;;;10.23;4.87;;;4.60;79.50;;;;;;5074239;28;20079;-53
2022/03/14 04:20:53;;;;;;;9.30;4.40;;;4.60;79.60;;;;;;5083106;28;20298;-50
2022/03/14 04:23:20;;;;;;;10.93;4.70;;;4.50;79.30;;;;;;5091371;28;20044;-56
2022/03/14 04:25:48;;;;;;;5.80;3.40;;;4.50;79.70;;;;;;5092256;28;20035;-51
2022/03/14 04:28:16;;;;;;;7.22;3.38;;;4.40;83.40;;;;;;5085094;28;20043;-54
2022/03/14 04:30:43;;;;;;;6.13;3.78;;;4.20;84.10;;;;;;5083046;28;20036;-53
2022/03/14 04:33:10;;;;;;;8.02;3.80;;;4.20;81.70;;;;;;5091879;28;20044;-53
2022/03/14 04:35:37;;;;;;;7.85;3.60;;;4.10;84.10;;;;;;5091865;28;20048;-56
2022/03/14 04:38:07;;;;;;;7.15;4.03;;;4.00;84.70;;;;;;5085626;28;20044;-53
2022/03/14 04:40:34;;;;;;;7.57;3.45;;;4.00;85.70;;;;;;5086111;28;20051;-53
2022/03/14 04:43:05;;;;;;;7.18;4.18;;;3.90;85.90;;;;;;5091646;28;20040;-53
2022/03/14 04:45:35;;;;;;;7.45;3.50;;;3.80;87.10;;;;;;5104440;22;20458;-55
2022/03/14 04:48:04;;;;;;;7.30;3.25;;;3.70;88.60;;;;;;5082364;28;20042;-56
2022/03/14 04:50:32;;;;;;;7.53;3.78;;;3.70;88.90;;;;;;5084818;28;20078;-55
2022/03/14 04:52:59;;;;;;;7.22;3.28;;;3.50;90.60;;;;;;5084690;28;20040;-56
2022/03/14 04:55:26;;;;;;;6.43;3.20;;;3.40;91.00;;;;;;5073898;28;20041;-56
2022/03/14 04:57:53;;;;;;;6.30;3.42;;;3.30;91.70;;;;;;5071438;28;20052;-54
2022/03/14 05:00:20;;;;;;;5.88;3.00;;;3.30;92.30;;;;;;5073760;28;20472;-56
2022/03/14 05:02:47;;;;;;;7.65;3.50;;;3.20;92.90;;;;;;5079407;28;20515;-56
2022/03/14 05:05:14;;;;;;;7.40;3.13;;;3.10;93.50;;;;;;5075409;28;20623;-57
2022/03/14 05:07:43;;;;;;;5.80;3.45;;;3.20;94.00;;;;;;5071494;28;20040;-56
2022/03/14 05:10:10;;;;;;;6.72;3.28;;;3.20;93.40;;;;;;5073345;28;20478;-56
2022/03/14 05:12:37;;;;;;;8.00;4.18;;;3.30;93.70;;;;;;5085544;28;20047;-56
2022/03/14 05:15:05;;;;;;;5.60;2.75;;;3.30;93.60;;;;;;5080394;28;20450;-57
2022/03/14 05:17:33;;;;;;;7.90;3.83;;;3.30;95.40;;;;;;5088484;28;20051;-56
2022/03/14 05:20:00;;;;;;;;;;;3.20;95.80;;;;;;5091676;28;20089;-54
2022/03/14 05:22:27;;;;;;;6.70;3.50;;;3.10;96.60;;;;;;5082996;28;19924;-56
2022/03/14 05:24:54;;;;;;;9.95;4.03;;;3.00;97.00;;;;;;5089265;28;20461;-56
2022/03/14 05:27:21;;;;;;;9.75;3.42;;;3.00;97.10;;;;;;5090998;28;20040;-57
2022/03/14 05:29:48;;;;;;;8.23;3.70;;;3.00;97.70;;;;;;5091100;28;20044;-53
2022/03/14 05:32:15;;;;;;;7.78;3.83;;;3.00;98.10;;;;;;5083037;28;20047;-55
2022/03/14 05:34:41;;;;;;;5.75;3.13;;;3.10;98.90;;;;;;5089904;28;20044;-56
2022/03/14 05:37:08;;;;;;;10.07;3.85;;;3.10;99.50;;;;;;5094763;28;20416;-54
2022/03/14 05:39:35;;;;;;;10.43;3.72;;;3.20;99.50;;;;;;5092836;28;20690;-55
2022/03/14 05:42:03;;;;;;;6.72;2.70;;;3.30;99.30;;;;;;5094815;28;20048;-53
2022/03/14 05:44:30;;;;;;;8.10;3.80;;;3.10;99.80;;;;;;5091999;28;20044;-55
2022/03/14 05:46:57;;;;;;;9.30;3.70;;;3.20;99.60;;;;;;5094878;28;20492;-52
2022/03/14 05:49:24;;;;;;;6.68;3.28;;;3.20;99.90;;;;;;5091670;28;20067;-56
2022/03/14 05:51:52;;;;;;;12.40;4.07;;;3.10;99.90;;;;;;5091927;28;20386;-56
2022/03/14 05:54:19;;;;;;;10.43;4.15;;;3.00;99.90;;;;;;5085676;28;20040;-54
2022/03/14 05:56:46;;;;;;;12.07;4.32;;;3.10;99.90;;;;;;5087898;28;20409;-53
2022/03/14 05:59:14;;;;;;;9.55;3.75;;;3.00;99.90;;;;;;5083749;28;20106;-54
2022/03/14 06:01:42;;;;;;;10.50;4.07;;;2.80;99.90;;;;;;5090506;28;20047;-56
2022/03/14 06:04:09;;;;;;;10.60;4.03;;;2.70;99.90;;;;;;5094885;28;20036;-55
2022/03/14 06:06:38;;;;;;;14.38;4.60;;;2.60;99.90;;;;;;5093424;28;20071;-53
2022/03/14 06:09:05;;;;;;;11.43;4.50;;;2.60;99.90;;;;;;5085566;28;20036;-53
2022/03/14 06:11:32;;;;;;;10.70;4.20;;;2.60;99.90;;;;;;5094507;28;20048;-56
2022/03/14 06:14:01;;;;;;;9.55;4.20;;;2.60;99.90;;;;;;5094699;28;20089;-56
2022/03/14 06:16:28;;;;;;;11.93;4.07;;;2.80;99.90;;;;;;5082669;28;20044;-56
2022/03/14 06:18:55;;;;;;;9.57;3.55;;;2.90;99.90;;;;;;5092199;28;20130;-57
2022/03/14 06:21:22;;;;;;;7.03;3.55;;;3.00;99.90;;;;;;5094560;28;20047;-55
2022/03/14 06:23:49;;;;;;;10.52;4.80;;;3.10;99.90;;;;;;5089424;28;20044;-56
2022/03/14 06:26:17;;;;;;;9.13;4.07;;;3.20;99.90;;;;;;5085990;28;20111;-56
2022/03/14 06:28:44;;;;;;;9.75;4.53;;;3.40;99.90;;;;;;5094321;28;20072;-56
2022/03/14 06:31:11;;;;;;;10.70;4.50;;;3.50;99.90;;;;;;5094321;28;20048;-55
2022/03/14 06:33:38;;;;;;;10.60;4.53;;;3.50;99.90;;;;;;5088579;28;20079;-54
2022/03/14 06:36:05;;;;;;;12.25;4.85;;;3.60;99.90;;;;;;5085392;28;20054;-56
2022/03/14 06:38:33;;;;;;;9.70;4.55;;;3.60;99.90;;;;;;5093970;28;20082;-56
2022/03/14 06:41:00;;;;;;;10.32;5.03;;;3.50;99.90;;;;;;5093938;28;20036;-55
2022/03/14 06:43:28;;;;;;;9.75;4.78;;;3.50;99.90;;;;;;5085352;28;20064;-54
2022/03/14 06:45:54;;;;;;;11.80;4.88;;;3.40;99.90;;;;;;5084525;28;20051;-55
2022/03/14 06:48:21;;;;;;;13.95;5.15;;;3.40;99.90;;;;;;5093794;28;20090;-56
2022/03/14 06:50:48;;;;;;;8.90;3.97;;;3.50;99.90;;;;;;5089696;28;20059;-56
2022/03/14 06:53:15;;;;;;;9.32;4.47;;;3.60;99.90;;;;;;5086486;28;20071;-56
2022/03/14 06:55:42;;;;;;;7.50;4.07;;;3.70;99.90;;;;;;5093679;28;20039;-56
2022/03/14 06:58:09;;;;;;;15.10;5.05;;;3.80;99.90;;;;;;5093606;28;20465;-57
2022/03/14 07:00:36;;;;;;;11.13;4.97;;;4.00;99.90;;;;;;5087828;28;20044;-55
2022/03/14 07:03:03;;;;;;;13.85;5.78;;;4.10;99.90;;;;;;5085352;28;20564;-56
2022/03/14 07:05:30;;;;;;;14.50;5.93;;;4.30;99.90;;;;;;5093859;28;20459;-56
2022/03/14 07:07:57;;;;;;;13.82;5.93;;;4.40;99.90;;;;;;5092690;28;20068;-55
2022/03/14 07:10:24;;;;;;;17.80;6.35;;;4.50;99.90;;;;;;5087643;28;20092;-56
2022/03/14 07:12:51;;;;;;;15.48;6.40;;;4.50;99.90;;;;;;5091506;28;20043;-56
2022/03/14 07:15:23;;;;;;;16.83;7.25;;;4.60;99.90;;;;;;5093317;28;20066;-56
2022/03/14 07:17:50;;;;;;;19.10;6.93;;;4.80;99.90;;;;;;5087239;28;20068;-55
2022/03/14 07:20:18;;;;;;;18.08;8.85;;;4.90;99.90;;;;;;5085774;28;20079;-56
2022/03/14 07:22:54;;;;;;;18.98;7.47;;;5.00;99.90;;;;;;5093322;28;20523;-55
2022/03/14 07:25:34;;;;;;;26.35;7.82;;;5.20;99.90;;;;;;5092073;28;20044;-53
2022/03/14 07:28:05;;;;;;;18.10;7.53;;;5.30;99.90;;;;;;5083406;28;20554;-55
2022/03/14 07:30:32;;;;;;;25.05;7.70;;;5.40;99.90;;;;;;5093010;28;20040;-56
2022/03/14 07:32:58;;;;;;;22.77;8.00;;;5.60;99.90;;;;;;5093264;28;20044;-54
2022/03/14 07:35:27;;;;;;;18.77;7.10;;;5.80;99.90;;;;;;5089114;28;20040;-53
2022/03/14 07:37:53;;;;;;;17.35;7.13;;;5.80;99.70;;;;;;5084361;28;20044;-53
2022/03/14 07:40:21;;;;;;;20.65;6.47;;;5.90;99.50;;;;;;5092626;28;20152;-54
2022/03/14 07:42:52;;;;;;;18.27;7.40;;;6.00;99.20;;;;;;5087758;28;20489;-53
2022/03/14 07:45:21;;;;;;;15.68;6.97;;;6.20;98.90;;;;;;5084299;28;20082;-56
2022/03/14 07:47:48;;;;;;;22.30;7.15;;;6.30;98.70;;;;;;5092884;28;20450;-53
2022/03/14 07:50:17;;;;;;;20.73;6.47;;;6.40;98.00;;;;;;5092463;28;20043;-56
2022/03/14 07:52:46;;;;;;;16.90;6.55;;;6.40;97.20;;;;;;5088451;28;20072;-55
2022/03/14 07:55:13;;;;;;;16.25;6.40;;;6.50;97.40;;;;;;5084582;28;20063;-54
2022/03/14 07:57:40;;;;;;;;;;;6.50;97.00;;;;;;5093141;28;20044;-53
2022/03/14 08:00:10;;;;;;;19.88;6.45;;;6.70;96.70;;;;;;5092450;28;20299;-53
2022/03/14 08:02:46;;;;;;;11.85;5.78;;;6.90;95.70;;;;;;5080530;28;20516;-52
2022/03/14 08:05:15;;;;;;;15.43;6.20;;;7.10;95.50;;;;;;5092390;28;20484;-53
2022/03/14 08:07:47;;;;;;;18.70;6.38;;;7.20;95.30;;;;;;5092431;28;20097;-54
2022/03/14 08:10:16;;;;;;;16.85;6.05;;;7.30;95.70;;;;;;5081780;28;20041;-51
2022/03/14 08:12:55;;;;;;;21.58;6.85;;;7.50;95.20;;;;;;5089074;28;20101;-53
2022/03/14 08:15:28;;;;;;;15.45;6.50;;;7.60;94.60;;;;;;5092295;28;20500;-56
2022/03/14 08:17:58;;;;;;;16.35;6.60;;;7.80;94.30;;;;;;5087403;28;20044;-53
2022/03/14 08:20:27;;;;;;;11.60;5.80;;;8.00;94.30;;;;;;5083230;28;20040;-53
2022/03/14 08:22:56;;;;;;;20.20;5.95;;;8.10;93.30;;;;;;5092244;28;20484;-53
2022/03/14 08:25:26;;;;;;;17.60;6.82;;;8.30;93.10;;;;;;5092212;28;20044;-52
2022/03/14 08:27:53;;;;;;;;;;;8.40;93.40;;;;;;5081911;28;20047;-56
2022/03/14 08:30:21;;;;;;;18.48;6.43;;;8.40;93.40;;;;;;5084940;28;19920;-52
2022/03/14 08:32:49;;;;;;;17.75;5.68;;;8.50;92.50;;;;;;5092166;28;20051;-56
2022/03/14 08:35:19;;;;;;;15.30;6.70;;;8.60;91.80;;;;;;5084765;28;20043;-52
2022/03/14 08:37:49;;;;;;;17.70;6.70;;;8.60;91.00;;;;;;5083541;28;20491;-55
2022/03/14 08:40:20;;;;;;;17.02;6.40;;;8.70;90.40;;;;;;5091466;28;20059;-54
2022/03/14 08:42:48;;;;;;;17.33;6.25;;;8.80;91.10;;;;;;5090796;28;20055;-53
2022/03/14 08:45:15;;;;;;;18.88;6.47;;;8.90;90.90;;;;;;5079719;28;20094;-54
2022/03/14 08:47:43;;;;;;;12.65;6.18;;;9.10;90.30;;;;;;5088078;28;20047;-52
2022/03/14 08:50:12;;;;;;;13.70;6.28;;;9.20;90.20;;;;;;5091911;28;20105;-54
2022/03/14 08:52:39;;;;;;;16.58;6.30;;;9.40;88.90;;;;;;5091766;28;20044;-55
2022/03/14 08:55:07;;;;;;;22.63;6.28;;;9.50;90.10;;;;;;5087498;28;20075;-53
2022/03/14 08:57:38;;;;;;;15.65;6.38;;;9.60;88.80;;;;;;5087311;28;20126;-54
2022/03/14 09:00:07;;;;;;;11.95;6.22;;;9.70;86.40;;;;;;5073599;28;20059;-55
2022/03/14 09:02:36;;;;;;;10.20;6.25;;;9.80;87.30;;;;;;5081689;28;20416;-56
2022/03/14 09:05:03;;;;;;;12.20;6.05;;;10.00;86.70;;;;;;5090571;28;20071;-55
2022/03/14 09:07:30;;;;;;;;;;;9.90;82.60;;;;;;5091884;28;20504;-55
2022/03/14 09:10:03;;;;;;;12.68;5.47;;;10.10;84.00;;;;;;5090637;28;20010;-55
2022/03/14 09:12:32;;;;;;;18.20;6.05;;;10.30;83.50;;;;;;5081117;28;20051;-53
2022/03/14 09:15:00;;;;;;;12.85;6.30;;;10.50;82.90;;;;;;5090008;28;20043;-55
2022/03/14 09:17:29;;;;;;;17.33;6.28;;;10.70;81.90;;;;;;5091441;28;20040;-53
2022/03/14 09:19:57;;;;;;;16.02;5.78;;;10.90;81.90;;;;;;5085200;28;20041;-53
2022/03/14 09:22:24;;;;;;;14.18;6.25;;;11.00;80.60;;;;;;5082926;28;20040;-56
2022/03/14 09:24:54;;;;;;;12.75;6.28;;;11.10;81.40;;;;;;5091533;28;20447;-57
2022/03/14 09:27:23;;;;;;;16.02;5.47;;;11.20;81.80;;;;;;5091348;28;20326;-56
2022/03/14 09:29:51;;;;;;;13.95;5.72;;;11.20;84.60;;;;;;5083592;28;20036;-58
2022/03/14 09:32:18;;;;;;;13.95;5.72;;;11.40;83.00;;;;;;5082753;28;20061;-58
2022/03/14 09:34:45;;;;;;;12.35;5.72;;;11.50;82.00;;;;;;5091139;28;20076;-57
2022/03/14 09:37:13;;;;;;;13.95;5.30;;;11.60;81.50;;;;;;5091267;28;20452;-57
2022/03/14 09:39:41;;;;;;;25.70;6.78;;;11.60;79.40;;;;;;5089517;28;20042;-58
2022/03/14 09:42:11;;;;;;;12.07;5.60;;;11.60;79.30;;;;;;5082685;28;20424;-56
2022/03/14 09:44:44;;;;;;;14.27;4.95;;;11.70;80.40;;;;;;5091233;28;20101;-57
2022/03/14 09:47:12;;;;;;;12.55;5.93;;;11.60;82.60;;;;;;5082625;28;20043;-56
2022/03/14 09:49:42;;;;;;;13.50;5.70;;;11.70;82.20;;;;;;5082369;28;20124;-57
2022/03/14 09:52:11;;;;;;;14.00;5.30;;;11.90;82.00;;;;;;5090968;28;20048;-56
2022/03/14 09:54:38;;;;;;;8.98;5.50;;;12.10;83.40;;;;;;5091054;28;20507;-56
2022/03/14 09:57:05;;;;;;;10.73;5.05;;;12.20;83.50;;;;;;5082370;28;20543;-57
2022/03/14 09:59:35;;;;;;;11.20;5.00;;;12.30;83.00;;;;;;5085473;28;20087;-58
2022/03/14 10:02:02;;;;;;;8.63;4.97;;;12.30;84.00;;;;;;5090791;28;20044;-57
2022/03/14 10:04:30;;;;;;;8.80;4.93;;;12.30;83.20;;;;;;5086833;28;20086;-57
2022/03/14 10:06:57;;;;;;;7.05;4.45;;;12.50;83.10;;;;;;5080551;28;20041;-57
2022/03/14 10:09:23;;;;;;;8.13;4.75;;;12.50;84.80;;;;;;5090692;28;20500;-56
2022/03/14 10:11:52;;;;;;;7.78;4.28;;;12.60;84.00;;;;;;5090754;28;20538;-57
2022/03/14 10:14:19;;;;;;;8.45;5.20;;;12.70;83.30;;;;;;5082608;28;20131;-58
2022/03/14 10:16:47;;;;;;;7.18;4.55;;;12.70;82.50;;;;;;5082432;28;20048;-56
2022/03/14 10:19:20;;;;;;;18.73;5.10;;;12.80;83.30;;;;;;5090650;28;20385;-57
2022/03/14 10:21:50;;;;;;;7.20;4.63;;;12.80;83.60;;;;;;5090334;28;20101;-56
2022/03/14 10:24:22;;;;;;;9.52;4.22;;;12.90;85.00;;;;;;5087169;28;20492;-56
2022/03/14 10:26:50;;;;;;;8.63;4.43;;;13.00;84.40;;;;;;5094552;28;20548;-58
2022/03/14 10:29:18;;;;;;;4.70;3.30;;;13.10;84.50;;;;;;5094016;28;20083;-57
2022/03/14 10:31:56;;;;;;;8.70;3.92;;;13.10;85.30;;;;;;5082913;28;20093;-56
2022/03/14 10:34:23;;;;;;;9.07;3.93;;;13.20;85.10;;;;;;5094163;28;20526;-57
2022/03/14 10:36:53;;;;;;;9.02;4.90;;;13.20;83.30;;;;;;5094283;28;20278;-57
2022/03/14 10:39:27;;;;;;;8.88;4.65;;;13.20;82.50;;;;;;5083833;28;20051;-57
2022/03/14 10:42:02;;;;;;;10.65;4.88;;;13.20;82.80;;;;;;5092047;28;20036;-57
2022/03/14 10:44:47;;;;;;;9.73;5.47;;;13.20;81.50;;;;;;5094120;28;20036;-57
2022/03/14 10:48:15;;;;;;;15.05;5.57;;;13.40;81.40;;;;;;5088287;22;20049;-60
2022/03/14 10:50:43;;;;;;;9.10;4.97;;;13.40;80.90;;;;;;5022355;28;20045;-60
2022/03/14 10:53:17;;;;;;;10.45;5.15;;;13.50;82.70;;;;;;5026073;28;20481;-60
2022/03/14 10:55:46;;;;;;;10.40;5.72;;;13.60;81.30;;;;;;5052552;28;20053;-60
2022/03/14 10:58:19;;;;;;;10.45;5.65;;;13.70;78.80;;;;;;5061153;28;20102;-60
2022/03/14 11:00:57;;;;;;;7.55;4.63;;;13.70;78.70;;;;;;5053477;28;20052;-60
2022/03/14 11:03:30;;;;;;;7.22;4.53;;;13.80;78.50;;;;;;5058177;28;20040;-60
2022/03/14 11:06:02;;;;;;;7.55;4.68;;;13.70;78.30;;;;;;5064996;28;20558;-60
2022/03/14 11:08:39;;;;;;;11.80;4.80;;;13.70;77.50;;;;;;5073282;28;20043;-60
2022/03/14 11:11:08;;;;;;;7.60;4.88;;;13.60;77.70;;;;;;5064167;28;20496;-61
2022/03/14 11:13:46;;;;;;;7.68;4.53;;;13.60;77.30;;;;;;5064734;28;20044;-60
2022/03/14 11:16:20;;;;;;;;;;;13.70;76.60;;;;;;5073788;28;20493;-61
2022/03/14 11:18:49;;;;;;;8.27;4.35;;;13.80;77.10;;;;;;5065270;28;20015;-60
2022/03/14 11:21:20;;;;;;;7.05;4.22;;;13.80;77.70;;;;;;5063743;28;20439;-60
2022/03/14 11:23:49;;;;;;;9.15;4.32;;;13.90;79.20;;;;;;5072966;28;20052;-60
2022/03/14 11:26:21;;;;;;;6.43;4.40;;;13.90;77.70;;;;;;5073369;28;20047;-60
2022/03/14 11:28:49;;;;;;;6.32;4.15;;;13.90;76.10;;;;;;5064673;28;20123;-60
2022/03/14 11:31:21;;;;;;;9.70;4.40;;;14.00;76.90;;;;;;5064013;28;20045;-61
2022/03/14 11:33:49;;;;;;;4.88;3.78;;;14.00;76.10;;;;;;5073108;28;20084;-60
2022/03/14 11:36:19;;;;;;;7.93;4.60;;;14.10;77.10;;;;;;5069058;28;20048;-61
2022/03/14 11:38:46;;;;;;;5.95;3.60;;;14.20;74.80;;;;;;5064227;28;20075;-60
2022/03/14 11:41:16;;;;;;;6.70;4.22;;;14.20;77.80;;;;;;5073125;28;20082;-60
2022/03/14 11:43:45;;;;;;;7.25;4.30;;;14.20;76.20;;;;;;5068415;28;20068;-60
2022/03/14 11:46:35;;;;;;;6.38;4.43;;;14.30;77.20;;;;;;5055675;28;20111;-60
2022/03/14 11:49:15;;;;;;;5.55;3.80;;;14.30;75.40;;;;;;5052459;28;20037;-61
2022/03/14 11:51:43;;;;;;;6.28;3.50;;;14.30;77.50;;;;;;5052632;28;20061;-60
2022/03/14 11:54:11;;;;;;;7.82;3.65;;;14.40;76.60;;;;;;5059970;28;20041;-60
2022/03/14 11:56:51;;;;;;;6.10;3.90;;;14.50;76.20;;;;;;5068232;28;20048;-60
2022/03/14 11:59:29;;;;;;;6.93;3.85;;;14.40;75.50;;;;;;5071975;28;20048;-60
2022/03/14 12:02:00;;;;;;;8.02;4.45;;;14.50;75.30;;;;;;5064178;28;20037;-60
2022/03/14 12:04:38;;;;;;;8.20;4.38;;;14.60;74.90;;;;;;5063798;28;20041;-61
2022/03/14 12:07:07;;;;;;;5.93;4.15;;;14.60;73.30;;;;;;5072239;28;20052;-60
2022/03/14 12:09:33;;;;;;;7.47;4.03;;;14.80;74.90;;;;;;5069061;28;20074;-60
2022/03/14 12:12:27;;;;;;;6.63;4.07;;;14.80;75.50;;;;;;5062681;28;20045;-60
2022/03/14 12:14:58;;;;;;;6.05;4.00;;;14.90;73.90;;;;;;5072245;28;20071;-60
2022/03/14 12:17:31;;;;;;;8.50;4.40;;;14.90;71.70;;;;;;5071715;28;20044;-60
2022/03/14 12:20:00;;;;;;;6.93;4.40;;;15.00;72.50;;;;;;5063090;28;20037;-60
2022/03/14 12:22:29;;;;;;;7.88;4.25;;;14.90;71.60;;;;;;5066117;28;20041;-60
2022/03/14 12:24:57;;;;;;;7.00;3.90;;;15.00;74.20;;;;;;5072050;28;20047;-60
2022/03/14 12:27:24;;;;;;;9.35;4.10;;;15.10;74.40;;;;;;5066366;28;20040;-60
2022/03/14 12:29:52;;;;;;;7.55;4.25;;;15.00;72.60;;;;;;5063282;28;20047;-60
2022/03/14 12:32:39;;;;;;;6.65;3.72;;;15.00;73.40;;;;;;5071937;28;20052;-60
2022/03/14 12:35:25;;;;;;;6.95;3.95;;;15.20;71.80;;;;;;5071841;28;20045;-60
2022/03/14 12:37:54;;;;;;;8.90;4.63;;;15.30;69.30;;;;;;5063357;28;20032;-61
2022/03/14 12:40:21;;;;;;;7.35;4.38;;;15.40;68.80;;;;;;5063430;28;20056;-61
2022/03/14 12:42:51;;;;;;;6.22;4.13;;;15.30;68.40;;;;;;5071511;28;20532;-60
2022/03/14 12:45:29;;;;;;;6.03;3.85;;;15.30;68.20;;;;;;5071292;28;20059;-60
2022/03/14 12:47:58;;;;;;;7.03;3.42;;;15.30;68.70;;;;;;5061314;28;20709;-60
2022/03/14 12:50:45;;;;;;;6.65;3.50;;;15.40;68.50;;;;;;5071325;28;20127;-60
2022/03/14 12:53:17;;;;;;;6.95;4.43;;;15.60;68.70;;;;;;5071523;28;20378;-60
2022/03/14 12:55:49;;;;;;;7.28;4.00;;;15.50;66.80;;;;;;5069295;28;20097;-60
2022/03/14 12:58:28;;;;;;;6.25;4.00;;;15.60;68.00;;;;;;5056865;28;20409;-60
2022/03/14 13:01:00;;;;;;;6.00;3.58;;;15.70;69.10;;;;;;5070823;28;20053;-60
2022/03/14 13:03:30;;;;;;;5.63;3.35;;;15.60;67.50;;;;;;5067267;28;20563;-60